sensor_id;sensor_type;location;lat;lon;timestamp;pressure;altitude;pressure_sealevel;temperature;humidity
33075;BME280;19433;51.292;6.868;2022-12-07T06:31:46;100460.59;;;2.27;100.00
33075;BME280;19433;51.292;6.868;2022-12-07T06:34:17;100468.94;;;2.26;100.00
33075;BME280;19433;51.292;6.868;2022-12-07T06:36:42;100460.97;;;2.32;100.00
33075;BME280;19433;51.292;6.868;2022-12-07T06:39:08;100465.34;;;2.25;100.00
33075;BME280;19433;51.292;6.868;2022-12-07T06:41:37;100461.34;;;2.20;100.00
33075;BME280;19433;51.292;6.868;2022-12-07T06:44:04;100456.03;;;2.18;100.00
33075;BME280;19433;51.292;6.868;2022-12-07T06:46:30;100460.78;;;2.16;100.00
33075;BME280;19433;51.292;6.868;2022-12-07T06:48:55;100469.09;;;2.15;100.00
33075;BME280;19433;51.292;6.868;2022-12-07T06:51:20;100465.94;;;2.19;100.00
33075;BME280;19433;51.292;6.868;2022-12-07T06:53:45;100473.25;;;2.19;100.00
33075;BME280;19433;51.292;6.868;2022-12-07T06:56:11;100478.00;;;2.17;100.00
33075;BME280;19433;51.292;6.868;2022-12-07T06:58:36;100473.00;;;2.12;100.00
33075;BME280;19433;51.292;6.868;2022-12-07T07:01:02;100471.88;;;2.05;100.00
33075;BME280;19433;51.292;6.868;2022-12-07T07:03:28;100467.88;;;1.99;100.00
33075;BME280;19433;51.292;6.868;2022-12-07T07:05:53;100462.13;;;2.02;100.00
33075;BME280;19433;51.292;6.868;2022-12-07T07:08:18;100466.56;;;2.03;100.00
33075;BME280;19433;51.292;6.868;2022-12-07T07:10:43;100470.16;;;2.04;100.00
33075;BME280;19433;51.292;6.868;2022-12-07T07:13:09;100468.72;;;2.09;100.00
33075;BME280;19433;51.292;6.868;2022-12-07T07:15:34;100472.03;;;2.03;100.00
33075;BME280;19433;51.292;6.868;2022-12-07T07:18:00;100480.34;;;2.02;100.00
33075;BME280;19433;51.292;6.868;2022-12-07T07:20:25;100475.03;;;2.00;100.00
33075;BME280;19433;51.292;6.868;2022-12-07T07:22:53;100468.91;;;1.98;100.00
33075;BME280;19433;51.292;6.868;2022-12-07T07:25:19;100468.56;;;2.11;100.00
33075;BME280;19433;51.292;6.868;2022-12-07T07:27:44;100474.97;;;2.20;100.00
33075;BME280;19433;51.292;6.868;2022-12-07T07:30:09;100476.97;;;2.27;100.00
33075;BME280;19433;51.292;6.868;2022-12-07T07:32:35;100482.13;;;2.21;100.00
33075;BME280;19433;51.292;6.868;2022-12-07T07:35:00;100491.81;;;2.33;100.00
33075;BME280;19433;51.292;6.868;2022-12-07T07:37:26;100484.22;;;2.36;100.00
33075;BME280;19433;51.292;6.868;2022-12-07T07:39:51;100486.50;;;2.41;100.00
33075;BME280;19433;51.292;6.868;2022-12-07T07:42:16;100489.00;;;2.52;100.00
33075;BME280;19433;51.292;6.868;2022-12-07T07:44:41;100484.47;;;2.43;100.00
33075;BME280;19433;51.292;6.868;2022-12-07T07:47:07;100476.09;;;2.27;100.00
33075;BME280;19433;51.292;6.868;2022-12-07T07:49:32;100477.91;;;2.08;100.00
33075;BME280;19433;51.292;6.868;2022-12-07T07:51:58;100475.38;;;1.97;100.00
33075;BME280;19433;51.292;6.868;2022-12-07T07:54:23;100477.72;;;1.83;100.00
33075;BME280;19433;51.292;6.868;2022-12-07T07:56:48;100481.16;;;1.75;100.00
33075;BME280;19433;51.292;6.868;2022-12-07T07:59:14;100479.31;;;1.75;100.00
33075;BME280;19433;51.292;6.868;2022-12-07T08:01:39;100478.44;;;1.75;100.00
33075;BME280;19433;51.292;6.868;2022-12-07T08:04:05;100478.88;;;1.80;100.00
33075;BME280;19433;51.292;6.868;2022-12-07T08:06:30;100475.38;;;1.88;100.00
33075;BME280;19433;51.292;6.868;2022-12-07T08:08:55;100491.66;;;2.07;100.00
33075;BME280;19433;51.292;6.868;2022-12-07T08:11:22;100498.53;;;2.11;100.00
33075;BME280;19433;51.292;6.868;2022-12-07T08:13:48;100499.41;;;2.11;100.00
33075;BME280;19433;51.292;6.868;2022-12-07T08:16:13;100506.97;;;2.18;100.00
33075;BME280;19433;51.292;6.868;2022-12-07T08:18:41;100495.63;;;2.22;100.00
33075;BME280;19433;51.292;6.868;2022-12-07T08:21:09;100500.47;;;2.28;100.00
33075;BME280;19433;51.292;6.868;2022-12-07T08:23:35;100497.34;;;2.23;100.00
33075;BME280;19433;51.292;6.868;2022-12-07T08:26:06;100497.56;;;2.30;100.00
33075;BME280;19433;51.292;6.868;2022-12-07T08:28:31;100506.47;;;2.32;100.00
33075;BME280;19433;51.292;6.868;2022-12-07T08:31:05;100504.44;;;2.34;100.00
33075;BME280;19433;51.292;6.868;2022-12-07T08:33:31;100505.44;;;2.42;100.00
33075;BME280;19433;51.292;6.868;2022-12-07T08:36:05;100504.09;;;2.46;100.00
33075;BME280;19433;51.292;6.868;2022-12-07T08:38:31;100505.22;;;2.54;100.00
33075;BME280;19433;51.292;6.868;2022-12-07T08:40:58;100508.06;;;2.79;100.00
33075;BME280;19433;51.292;6.868;2022-12-07T08:43:24;100501.38;;;3.09;100.00
33075;BME280;19433;51.292;6.868;2022-12-07T08:45:57;100498.34;;;3.12;100.00
33075;BME280;19433;51.292;6.868;2022-12-07T08:48:27;100490.16;;;3.12;100.00
33075;BME280;19433;51.292;6.868;2022-12-07T08:50:53;100499.19;;;2.95;100.00
33075;BME280;19433;51.292;6.868;2022-12-07T08:53:18;100504.28;;;2.90;100.00
33075;BME280;19433;51.292;6.868;2022-12-07T08:55:47;100498.03;;;3.33;100.00
33075;BME280;19433;51.292;6.868;2022-12-07T08:58:13;100505.00;;;3.53;100.00
33075;BME280;19433;51.292;6.868;2022-12-07T09:00:38;100503.13;;;3.54;100.00
33075;BME280;19433;51.292;6.868;2022-12-07T09:03:04;100490.47;;;3.27;100.00
33075;BME280;19433;51.292;6.868;2022-12-07T09:05:29;100490.75;;;3.24;100.00
33075;BME280;19433;51.292;6.868;2022-12-07T09:07:57;100489.59;;;3.44;100.00
33075;BME280;19433;51.292;6.868;2022-12-07T09:10:24;100493.91;;;3.73;100.00
33075;BME280;19433;51.292;6.868;2022-12-07T09:12:49;100495.34;;;4.11;100.00
33075;BME280;19433;51.292;6.868;2022-12-07T09:15:15;100497.84;;;4.04;100.00
33075;BME280;19433;51.292;6.868;2022-12-07T09:17:40;100495.59;;;4.00;100.00
33075;BME280;19433;51.292;6.868;2022-12-07T09:20:06;100498.88;;;4.03;100.00
33075;BME280;19433;51.292;6.868;2022-12-07T09:22:32;100505.78;;;4.15;100.00
33075;BME280;19433;51.292;6.868;2022-12-07T09:24:58;100496.63;;;4.24;100.00
33075;BME280;19433;51.292;6.868;2022-12-07T09:27:24;100509.75;;;4.21;100.00
33075;BME280;19433;51.292;6.868;2022-12-07T09:29:49;100506.41;;;4.35;100.00
33075;BME280;19433;51.292;6.868;2022-12-07T09:32:14;100510.28;;;4.24;100.00
33075;BME280;19433;51.292;6.868;2022-12-07T09:34:40;100503.81;;;4.34;100.00
33075;BME280;19433;51.292;6.868;2022-12-07T09:37:05;100511.53;;;4.72;100.00
33075;BME280;19433;51.292;6.868;2022-12-07T09:39:31;100516.28;;;5.53;100.00
33075;BME280;19433;51.292;6.868;2022-12-07T09:41:57;100516.47;;;5.92;100.00
33075;BME280;19433;51.292;6.868;2022-12-07T09:44:25;100513.31;;;6.11;100.00
33075;BME280;19433;51.292;6.868;2022-12-07T09:46:51;100510.41;;;6.13;100.00
33075;BME280;19433;51.292;6.868;2022-12-07T09:49:20;100514.38;;;5.86;100.00
33075;BME280;19433;51.292;6.868;2022-12-07T09:51:46;100515.94;;;5.80;100.00
33075;BME280;19433;51.292;6.868;2022-12-07T09:54:14;100499.50;;;5.64;100.00
33075;BME280;19433;51.292;6.868;2022-12-07T09:56:39;100506.31;;;5.84;100.00
33075;BME280;19433;51.292;6.868;2022-12-07T09:59:05;100503.41;;;5.86;100.00
33075;BME280;19433;51.292;6.868;2022-12-07T10:01:32;100503.94;;;5.57;100.00
33075;BME280;19433;51.292;6.868;2022-12-07T10:04:20;100508.41;;;5.58;100.00
33075;BME280;19433;51.292;6.868;2022-12-07T10:06:46;100499.50;;;5.32;100.00
33075;BME280;19433;51.292;6.868;2022-12-07T10:09:14;100501.69;;;5.04;100.00
33075;BME280;19433;51.292;6.868;2022-12-07T10:14:24;100488.22;;;5.35;100.00
33075;BME280;19433;51.292;6.868;2022-12-07T10:16:51;100493.47;;;5.36;100.00
33075;BME280;19433;51.292;6.868;2022-12-07T10:19:22;100496.88;;;5.06;100.00
33075;BME280;19433;51.292;6.868;2022-12-07T10:22:10;100482.31;;;4.97;100.00
33075;BME280;19433;51.292;6.868;2022-12-07T10:24:38;100487.63;;;4.99;100.00
33075;BME280;19433;51.292;6.868;2022-12-07T10:27:17;100484.84;;;4.82;100.00
33075;BME280;19433;51.292;6.868;2022-12-07T10:29:49;100474.97;;;5.06;100.00
33075;BME280;19433;51.292;6.868;2022-12-07T10:34:40;100473.25;;;4.97;100.00
33075;BME280;19433;51.292;6.868;2022-12-07T10:42:30;100469.63;;;4.72;100.00
33075;BME280;19433;51.292;6.868;2022-12-07T10:45:14;100471.28;;;4.56;100.00
33075;BME280;19433;51.292;6.868;2022-12-07T10:50:35;100453.25;;;4.88;100.00
33075;BME280;19433;51.292;6.868;2022-12-07T10:56:21;100450.31;;;5.95;100.00
33075;BME280;19433;51.292;6.868;2022-12-07T10:59:05;100441.13;;;6.58;100.00
33075;BME280;19433;51.292;6.868;2022-12-07T11:01:51;100449.31;;;7.43;100.00
33075;BME280;19433;51.292;6.868;2022-12-07T11:07:22;100448.50;;;8.24;94.60
33075;BME280;19433;51.292;6.868;2022-12-07T11:10:03;100446.13;;;8.06;92.72
33075;BME280;19433;51.292;6.868;2022-12-07T11:15:26;100434.53;;;7.96;97.14
33075;BME280;19433;51.292;6.868;2022-12-07T11:29:21;100432.41;;;8.71;90.16
33075;BME280;19433;51.292;6.868;2022-12-07T11:37:35;100415.69;;;8.07;93.39
33075;BME280;19433;51.292;6.868;2022-12-07T11:40:16;100412.81;;;8.01;92.58
33075;BME280;19433;51.292;6.868;2022-12-07T11:42:46;100409.31;;;7.40;93.75
33075;BME280;19433;51.292;6.868;2022-12-07T11:45:22;100401.19;;;7.47;95.59
33075;BME280;19433;51.292;6.868;2022-12-07T11:48:00;100391.66;;;6.97;97.88
33075;BME280;19433;51.292;6.868;2022-12-07T11:50:37;100400.59;;;6.91;97.69
33075;BME280;19433;51.292;6.868;2022-12-07T11:55:49;100397.28;;;6.50;99.70
33075;BME280;19433;51.292;6.868;2022-12-07T11:58:39;100397.97;;;6.44;100.00
33075;BME280;19433;51.292;6.868;2022-12-07T12:03:44;100404.75;;;6.64;100.00
33075;BME280;19433;51.292;6.868;2022-12-07T12:06:10;100389.03;;;6.50;100.00
33075;BME280;19433;51.292;6.868;2022-12-07T12:08:40;100392.31;;;6.76;99.90
33075;BME280;19433;51.292;6.868;2022-12-07T12:19:21;100390.44;;;6.46;99.82
33075;BME280;19433;51.292;6.868;2022-12-07T12:21:54;100383.09;;;5.99;100.00
33075;BME280;19433;51.292;6.868;2022-12-07T12:24:27;100392.34;;;5.98;100.00
33075;BME280;19433;51.292;6.868;2022-12-07T12:27:04;100384.34;;;5.88;100.00
33075;BME280;19433;51.292;6.868;2022-12-07T12:29:36;100372.63;;;6.11;100.00
33075;BME280;19433;51.292;6.868;2022-12-07T12:32:20;100368.44;;;6.23;100.00
33075;BME280;19433;51.292;6.868;2022-12-07T12:37:39;100373.16;;;5.98;100.00
33075;BME280;19433;51.292;6.868;2022-12-07T12:42:49;100363.09;;;5.90;100.00
33075;BME280;19433;51.292;6.868;2022-12-07T12:45:22;100360.78;;;6.10;100.00
33075;BME280;19433;51.292;6.868;2022-12-07T12:48:01;100355.78;;;6.14;100.00
33075;BME280;19433;51.292;6.868;2022-12-07T12:50:35;100353.78;;;6.08;100.00
33075;BME280;19433;51.292;6.868;2022-12-07T12:56:04;100349.59;;;6.20;100.00
33075;BME280;19433;51.292;6.868;2022-12-07T12:58:37;100356.72;;;5.98;100.00
33075;BME280;19433;51.292;6.868;2022-12-07T13:01:33;100353.53;;;5.78;100.00
33075;BME280;19433;51.292;6.868;2022-12-07T13:04:16;100352.13;;;5.90;100.00
33075;BME280;19433;51.292;6.868;2022-12-07T13:06:43;100348.03;;;5.78;100.00
33075;BME280;19433;51.292;6.868;2022-12-07T13:09:20;100350.22;;;5.83;100.00
33075;BME280;19433;51.292;6.868;2022-12-07T13:11:47;100345.75;;;5.98;100.00
33075;BME280;19433;51.292;6.868;2022-12-07T13:19:56;100342.44;;;5.63;100.00
33075;BME280;19433;51.292;6.868;2022-12-07T13:25:12;100341.69;;;5.78;99.60
33075;BME280;19433;51.292;6.868;2022-12-07T13:27:52;100339.47;;;5.89;100.00
33075;BME280;19433;51.292;6.868;2022-12-07T13:30:21;100337.31;;;6.08;100.00
33075;BME280;19433;51.292;6.868;2022-12-07T13:32:56;100329.78;;;6.02;100.00
33075;BME280;19433;51.292;6.868;2022-12-07T13:35:36;100324.59;;;6.15;100.00
33075;BME280;19433;51.292;6.868;2022-12-07T13:38:05;100320.53;;;6.33;99.67
33075;BME280;19433;51.292;6.868;2022-12-07T13:40:31;100322.88;;;6.14;100.00
33075;BME280;19433;51.292;6.868;2022-12-07T13:43:01;100322.03;;;6.13;100.00
33075;BME280;19433;51.292;6.868;2022-12-07T13:45:29;100309.84;;;6.16;100.00
33075;BME280;19433;51.292;6.868;2022-12-07T13:48:30;100324.00;;;6.27;100.00
33075;BME280;19433;51.292;6.868;2022-12-07T13:50:58;100318.13;;;6.39;100.00
33075;BME280;19433;51.292;6.868;2022-12-07T13:53:24;100309.31;;;6.43;100.00
33075;BME280;19433;51.292;6.868;2022-12-07T13:55:50;100302.63;;;6.23;100.00
33075;BME280;19433;51.292;6.868;2022-12-07T13:58:15;100288.22;;;5.90;100.00
33075;BME280;19433;51.292;6.868;2022-12-07T14:00:41;100301.63;;;5.77;100.00
33075;BME280;19433;51.292;6.868;2022-12-07T14:05:40;100291.00;;;5.74;100.00
33075;BME280;19433;51.292;6.868;2022-12-07T14:10:39;100285.25;;;5.52;100.00
33075;BME280;19433;51.292;6.868;2022-12-07T14:13:34;100286.53;;;5.34;100.00
33075;BME280;19433;51.292;6.868;2022-12-07T14:16:01;100286.91;;;5.06;100.00
33075;BME280;19433;51.292;6.868;2022-12-07T14:18:36;100286.22;;;5.12;100.00
33075;BME280;19433;51.292;6.868;2022-12-07T14:21:20;100277.19;;;4.95;100.00
33075;BME280;19433;51.292;6.868;2022-12-07T14:24:10;100281.81;;;4.71;100.00
33075;BME280;19433;51.292;6.868;2022-12-07T14:26:36;100281.13;;;4.52;100.00
33075;BME280;19433;51.292;6.868;2022-12-07T14:29:32;100270.19;;;4.60;100.00
33075;BME280;19433;51.292;6.868;2022-12-07T14:32:26;100269.31;;;4.76;100.00
33075;BME280;19433;51.292;6.868;2022-12-07T14:37:19;100267.78;;;4.49;100.00
33075;BME280;19433;51.292;6.868;2022-12-07T14:39:45;100271.88;;;4.29;100.00
33075;BME280;19433;51.292;6.868;2022-12-07T14:42:10;100266.03;;;4.16;100.00
33075;BME280;19433;51.292;6.868;2022-12-07T14:44:35;100260.94;;;4.21;100.00
33075;BME280;19433;51.292;6.868;2022-12-07T14:47:01;100257.50;;;4.11;100.00
33075;BME280;19433;51.292;6.868;2022-12-07T14:49:26;100252.69;;;3.97;100.00
33075;BME280;19433;51.292;6.868;2022-12-07T14:51:52;100251.19;;;4.10;100.00
33075;BME280;19433;51.292;6.868;2022-12-07T14:54:19;100251.47;;;3.91;100.00
33075;BME280;19433;51.292;6.868;2022-12-07T14:56:46;100249.19;;;3.70;100.00
33075;BME280;19433;51.292;6.868;2022-12-07T14:59:15;100241.78;;;3.54;100.00
33075;BME280;19433;51.292;6.868;2022-12-07T15:01:40;100241.56;;;3.40;100.00
33075;BME280;19433;51.292;6.868;2022-12-07T15:04:06;100245.69;;;3.44;100.00
33075;BME280;19433;51.292;6.868;2022-12-07T15:06:32;100237.56;;;3.26;100.00
33075;BME280;19433;51.292;6.868;2022-12-07T15:08:57;100232.94;;;3.18;100.00
33075;BME280;19433;51.292;6.868;2022-12-07T15:11:23;100223.69;;;3.11;100.00
33075;BME280;19433;51.292;6.868;2022-12-07T15:13:48;100232.78;;;3.20;100.00
33075;BME280;19433;51.292;6.868;2022-12-07T15:16:32;100242.41;;;3.06;100.00
33075;BME280;19433;51.292;6.868;2022-12-07T15:18:57;100223.91;;;2.92;100.00
33075;BME280;19433;51.292;6.868;2022-12-07T15:21:22;100233.63;;;2.87;100.00
33075;BME280;19433;51.292;6.868;2022-12-07T15:23:48;100226.72;;;2.74;100.00
33075;BME280;19433;51.292;6.868;2022-12-07T15:26:13;100226.97;;;2.63;100.00
33075;BME280;19433;51.292;6.868;2022-12-07T15:28:39;100238.03;;;2.62;100.00
33075;BME280;19433;51.292;6.868;2022-12-07T15:31:11;100234.94;;;2.57;100.00
33075;BME280;19433;51.292;6.868;2022-12-07T15:33:37;100230.34;;;2.57;100.00
33075;BME280;19433;51.292;6.868;2022-12-07T15:36:02;100229.94;;;2.70;100.00
33075;BME280;19433;51.292;6.868;2022-12-07T15:38:27;100229.47;;;2.74;100.00
33075;BME280;19433;51.292;6.868;2022-12-07T15:40:55;100224.19;;;2.81;100.00
33075;BME280;19433;51.292;6.868;2022-12-07T15:43:20;100230.91;;;2.87;100.00
33075;BME280;19433;51.292;6.868;2022-12-07T15:46:04;100228.31;;;2.85;100.00
33075;BME280;19433;51.292;6.868;2022-12-07T15:48:29;100233.31;;;2.90;100.00
33075;BME280;19433;51.292;6.868;2022-12-07T15:53:30;100217.94;;;2.89;100.00
33075;BME280;19433;51.292;6.868;2022-12-07T15:55:55;100212.00;;;2.93;100.00
33075;BME280;19433;51.292;6.868;2022-12-07T16:03:31;100229.41;;;3.76;100.00
33075;BME280;19433;51.292;6.868;2022-12-07T16:05:57;100205.63;;;3.61;100.00
33075;BME280;19433;51.292;6.868;2022-12-07T16:08:22;100204.94;;;3.59;100.00
33075;BME280;19433;51.292;6.868;2022-12-07T16:10:48;100201.31;;;3.42;100.00
33075;BME280;19433;51.292;6.868;2022-12-07T16:13:14;100206.28;;;3.46;100.00
33075;BME280;19433;51.292;6.868;2022-12-07T16:15:40;100212.91;;;3.36;100.00
33075;BME280;19433;51.292;6.868;2022-12-07T16:20:41;100209.81;;;3.39;100.00
33075;BME280;19433;51.292;6.868;2022-12-07T16:23:07;100192.56;;;3.30;100.00
33075;BME280;19433;51.292;6.868;2022-12-07T16:25:33;100195.63;;;3.27;100.00
33075;BME280;19433;51.292;6.868;2022-12-07T16:27:59;100200.06;;;3.36;100.00
33075;BME280;19433;51.292;6.868;2022-12-07T16:30:24;100198.19;;;3.29;100.00
33075;BME280;19433;51.292;6.868;2022-12-07T16:32:51;100191.69;;;3.30;100.00
33075;BME280;19433;51.292;6.868;2022-12-07T16:35:16;100202.94;;;3.27;100.00
33075;BME280;19433;51.292;6.868;2022-12-07T16:37:42;100214.94;;;3.42;100.00
33075;BME280;19433;51.292;6.868;2022-12-07T16:40:09;100214.94;;;3.34;100.00
33075;BME280;19433;51.292;6.868;2022-12-07T16:42:35;100217.50;;;3.35;100.00
33075;BME280;19433;51.292;6.868;2022-12-07T16:45:02;100196.94;;;3.15;100.00
33075;BME280;19433;51.292;6.868;2022-12-07T16:47:28;100208.72;;;3.24;100.00
33075;BME280;19433;51.292;6.868;2022-12-07T16:49:53;100191.16;;;3.18;100.00
33075;BME280;19433;51.292;6.868;2022-12-07T16:52:20;100192.50;;;3.14;100.00
33075;BME280;19433;51.292;6.868;2022-12-07T16:54:47;100187.56;;;3.17;100.00
33075;BME280;19433;51.292;6.868;2022-12-07T16:57:13;100197.84;;;3.32;100.00
33075;BME280;19433;51.292;6.868;2022-12-07T16:59:39;100202.63;;;3.30;100.00
33075;BME280;19433;51.292;6.868;2022-12-07T17:02:05;100183.47;;;3.22;100.00
33075;BME280;19433;51.292;6.868;2022-12-07T17:04:33;100184.47;;;3.12;100.00
33075;BME280;19433;51.292;6.868;2022-12-07T17:06:58;100185.28;;;3.05;100.00
33075;BME280;19433;51.292;6.868;2022-12-07T17:09:24;100178.28;;;3.02;100.00
33075;BME280;19433;51.292;6.868;2022-12-07T17:11:50;100200.19;;;3.18;100.00
33075;BME280;19433;51.292;6.868;2022-12-07T17:14:16;100183.41;;;3.05;100.00
33075;BME280;19433;51.292;6.868;2022-12-07T17:17:06;100201.06;;;3.19;100.00
33075;BME280;19433;51.292;6.868;2022-12-07T17:19:32;100176.59;;;3.09;100.00
33075;BME280;19433;51.292;6.868;2022-12-07T17:21:57;100169.44;;;3.08;100.00
33075;BME280;19433;51.292;6.868;2022-12-07T17:24:23;100186.38;;;3.20;100.00
33075;BME280;19433;51.292;6.868;2022-12-07T17:26:48;100183.13;;;3.16;100.00
33075;BME280;19433;51.292;6.868;2022-12-07T17:29:16;100176.72;;;3.34;100.00
33075;BME280;19433;51.292;6.868;2022-12-07T17:34:17;100156.63;;;3.09;100.00
33075;BME280;19433;51.292;6.868;2022-12-07T17:36:43;100183.13;;;3.16;100.00
33075;BME280;19433;51.292;6.868;2022-12-07T17:39:12;100151.50;;;3.06;100.00
33075;BME280;19433;51.292;6.868;2022-12-07T17:41:38;100140.88;;;2.95;100.00
33075;BME280;19433;51.292;6.868;2022-12-07T17:44:23;100143.13;;;2.99;100.00
33075;BME280;19433;51.292;6.868;2022-12-07T17:46:51;100163.19;;;3.24;100.00
33075;BME280;19433;51.292;6.868;2022-12-07T17:49:22;100161.44;;;3.15;100.00
33075;BME280;19433;51.292;6.868;2022-12-07T17:51:47;100166.44;;;3.28;100.00
33075;BME280;19433;51.292;6.868;2022-12-07T17:54:31;100131.03;;;3.02;100.00
33075;BME280;19433;51.292;6.868;2022-12-07T17:56:57;100138.38;;;3.01;100.00
33075;BME280;19433;51.292;6.868;2022-12-07T17:59:23;100137.41;;;3.18;100.00
33075;BME280;19433;51.292;6.868;2022-12-07T18:01:48;100133.94;;;3.00;100.00
33075;BME280;19433;51.292;6.868;2022-12-07T18:04:14;100156.53;;;3.18;100.00
33075;BME280;19433;51.292;6.868;2022-12-07T18:06:40;100146.41;;;3.11;100.00
33075;BME280;19433;51.292;6.868;2022-12-07T18:09:08;100115.53;;;3.10;100.00
33075;BME280;19433;51.292;6.868;2022-12-07T18:11:34;100136.97;;;2.97;100.00
33075;BME280;19433;51.292;6.868;2022-12-07T18:13:59;100128.09;;;2.95;100.00
33075;BME280;19433;51.292;6.868;2022-12-07T18:16:27;100125.03;;;2.90;100.00
33075;BME280;19433;51.292;6.868;2022-12-07T18:18:53;100141.88;;;2.86;100.00
33075;BME280;19433;51.292;6.868;2022-12-07T18:21:22;100136.25;;;2.87;100.00
33075;BME280;19433;51.292;6.868;2022-12-07T18:23:51;100131.66;;;2.88;100.00
33075;BME280;19433;51.292;6.868;2022-12-07T18:26:18;100123.59;;;2.78;100.00
33075;BME280;19433;51.292;6.868;2022-12-07T18:28:44;100119.31;;;2.75;100.00
33075;BME280;19433;51.292;6.868;2022-12-07T18:31:11;100128.41;;;2.84;100.00
33075;BME280;19433;51.292;6.868;2022-12-07T18:33:40;100134.94;;;2.99;100.00
33075;BME280;19433;51.292;6.868;2022-12-07T18:36:06;100123.50;;;2.96;100.00
33075;BME280;19433;51.292;6.868;2022-12-07T18:48:46;100125.09;;;3.14;100.00
33075;BME280;19433;51.292;6.868;2022-12-07T18:51:14;100123.94;;;3.25;100.00
33075;BME280;19433;51.292;6.868;2022-12-07T18:53:39;100123.78;;;3.18;100.00
33075;BME280;19433;51.292;6.868;2022-12-07T18:56:06;100125.66;;;3.18;100.00
33075;BME280;19433;51.292;6.868;2022-12-07T18:58:32;100131.97;;;3.18;100.00
33075;BME280;19433;51.292;6.868;2022-12-07T19:00:57;100121.03;;;3.18;100.00
33075;BME280;19433;51.292;6.868;2022-12-07T19:03:23;100123.72;;;3.10;100.00
33075;BME280;19433;51.292;6.868;2022-12-07T19:05:49;100134.63;;;3.02;100.00
33075;BME280;19433;51.292;6.868;2022-12-07T19:08:15;100113.41;;;2.88;100.00
33075;BME280;19433;51.292;6.868;2022-12-07T19:10:40;100112.09;;;3.00;100.00
33075;BME280;19433;51.292;6.868;2022-12-07T19:13:07;100088.56;;;2.99;100.00
33075;BME280;19433;51.292;6.868;2022-12-07T19:15:32;100117.66;;;2.91;100.00
33075;BME280;19433;51.292;6.868;2022-12-07T19:17:58;100132.91;;;3.01;100.00
33075;BME280;19433;51.292;6.868;2022-12-07T19:20:23;100103.31;;;2.80;100.00
33075;BME280;19433;51.292;6.868;2022-12-07T19:28:04;100101.00;;;2.60;100.00
33075;BME280;19433;51.292;6.868;2022-12-07T19:30:29;100083.91;;;2.50;100.00
33075;BME280;19433;51.292;6.868;2022-12-07T19:35:29;100098.38;;;2.50;100.00
33075;BME280;19433;51.292;6.868;2022-12-07T19:43:05;100107.22;;;2.78;100.00
33075;BME280;19433;51.292;6.868;2022-12-07T19:53:16;100094.97;;;2.82;100.00
33075;BME280;19433;51.292;6.868;2022-12-07T20:00:52;100073.28;;;2.72;100.00
33075;BME280;19433;51.292;6.868;2022-12-07T20:03:17;100081.16;;;2.83;100.00
33075;BME280;19433;51.292;6.868;2022-12-07T20:05:43;100071.03;;;2.60;100.00
33075;BME280;19433;51.292;6.868;2022-12-07T20:08:08;100083.81;;;2.67;100.00
33075;BME280;19433;51.292;6.868;2022-12-07T20:10:37;100067.91;;;2.55;100.00
33075;BME280;19433;51.292;6.868;2022-12-07T20:13:03;100070.09;;;2.51;100.00
33075;BME280;19433;51.292;6.868;2022-12-07T20:15:47;100080.88;;;2.61;100.00
33075;BME280;19433;51.292;6.868;2022-12-07T20:18:12;100061.56;;;2.46;100.00
33075;BME280;19433;51.292;6.868;2022-12-07T20:20:38;100071.13;;;2.50;100.00
33075;BME280;19433;51.292;6.868;2022-12-07T20:23:03;100062.47;;;2.63;100.00
33075;BME280;19433;51.292;6.868;2022-12-07T20:25:28;100079.00;;;2.61;100.00
33075;BME280;19433;51.292;6.868;2022-12-07T20:33:04;100054.75;;;2.42;100.00
33075;BME280;19433;51.292;6.868;2022-12-07T20:35:29;100056.63;;;2.50;100.00
33075;BME280;19433;51.292;6.868;2022-12-07T20:37:54;100058.16;;;2.44;100.00
33075;BME280;19433;51.292;6.868;2022-12-07T20:45:23;100042.91;;;2.33;100.00
33075;BME280;19433;51.292;6.868;2022-12-07T20:47:48;100047.84;;;2.30;100.00
33075;BME280;19433;51.292;6.868;2022-12-07T20:50:13;100039.16;;;2.26;100.00
33075;BME280;19433;51.292;6.868;2022-12-07T20:52:39;100051.09;;;2.33;100.00
33075;BME280;19433;51.292;6.868;2022-12-07T20:55:05;100039.66;;;2.30;100.00
33075;BME280;19433;51.292;6.868;2022-12-07T21:02:41;100032.94;;;2.16;100.00
33075;BME280;19433;51.292;6.868;2022-12-07T21:05:06;100047.66;;;2.31;100.00
33075;BME280;19433;51.292;6.868;2022-12-07T21:15:17;100036.88;;;2.14;100.00
33075;BME280;19433;51.292;6.868;2022-12-07T21:17:42;100038.78;;;2.21;100.00
33075;BME280;19433;51.292;6.868;2022-12-07T21:20:08;100051.91;;;2.26;100.00
33075;BME280;19433;51.292;6.868;2022-12-07T21:22:33;100046.47;;;2.26;100.00
33075;BME280;19433;51.292;6.868;2022-12-07T21:35:19;100036.03;;;2.21;100.00
33075;BME280;19433;51.292;6.868;2022-12-07T21:37:45;100028.69;;;2.14;100.00
33075;BME280;19433;51.292;6.868;2022-12-07T21:40:10;100043.84;;;2.16;100.00
33075;BME280;19433;51.292;6.868;2022-12-07T21:42:35;100030.22;;;2.16;100.00
33075;BME280;19433;51.292;6.868;2022-12-07T21:55:21;100004.94;;;1.98;100.00
33075;BME280;19433;51.292;6.868;2022-12-07T22:02:57;100023.44;;;2.20;100.00
33075;BME280;19433;51.292;6.868;2022-12-07T22:05:22;100012.53;;;2.20;100.00
33075;BME280;19433;51.292;6.868;2022-12-07T22:07:47;100022.09;;;2.24;100.00
33075;BME280;19433;51.292;6.868;2022-12-07T22:10:13;100011.13;;;2.16;100.00
33075;BME280;19433;51.292;6.868;2022-12-07T22:15:27;100007.72;;;2.14;100.00
33075;BME280;19433;51.292;6.868;2022-12-07T22:17:53;100011.66;;;2.11;100.00
33075;BME280;19433;51.292;6.868;2022-12-07T22:20:21;100010.28;;;2.16;100.00
33075;BME280;19433;51.292;6.868;2022-12-07T22:22:47;100017.50;;;2.25;100.00
33075;BME280;19433;51.292;6.868;2022-12-07T22:25:14;100032.16;;;2.24;100.00